Time;durP1;ratioP1;P1;durP2;ratioP2;P2;SDS_P1;SDS_P2;PMS_P1;PMS_P2;Temp;Humidity;BMP_temperature;BMP_pressure;BME280_temperature;BME280_humidity;BME280_pressure;Samples;Min_cycle;Max_cycle;Signal;HPM_P1;HPM_P2
2023/09/11 00:01:25;;;;;;;;;23.00;23.00;;;;;27.13;52.92;100726.19;6186276;22;45394;-83
2023/09/11 00:03:52;;;;;;;;;23.00;23.00;;;;;27.07;52.86;100715.19;6184851;23;45416;-85
2023/09/11 00:06:17;;;;;;;;;22.00;18.00;;;;;26.97;53.12;100705.38;6185102;22;45541;-84
2023/09/11 00:08:43;;;;;;;;;22.00;21.50;;;;;27.02;53.34;100713.88;6183434;23;45459;-83
2023/09/11 00:11:08;;;;;;;;;19.25;18.25;;;;;26.99;53.54;100721.56;6185781;23;45312;-84
2023/09/11 00:13:33;;;;;;;;;26.00;26.00;;;;;26.92;53.43;100701.53;6189386;22;45359;-84
2023/09/11 00:15:59;;;;;;;;;15.25;14.75;;;;;26.93;54.07;100720.44;6184153;23;51167;-84
2023/09/11 00:18:24;;;;;;;;;23.33;22.00;;;;;26.78;53.78;100700.50;6184014;22;46184;-84
2023/09/11 00:20:50;;;;;;;;;25.33;23.67;;;;;26.90;53.74;100711.78;6184341;23;45328;-84
2023/09/11 00:23:15;;;;;;;;;23.67;20.33;;;;;26.78;53.87;100696.91;6184848;22;45185;-85
2023/09/11 00:25:40;;;;;;;;;24.25;24.25;;;;;26.89;54.59;100712.81;6184560;23;45446;-85
2023/09/11 00:28:06;;;;;;;;;19.00;17.75;;;;;26.63;54.11;100675.94;6183571;23;45213;-87
2023/09/11 00:30:31;;;;;;;;;22.00;20.75;;;;;26.55;54.48;100673.31;6183609;22;45288;-82
2023/09/11 00:32:56;;;;;;;;;20.50;18.00;;;;;26.70;54.32;100706.06;6183456;23;53463;-85
2023/09/11 00:35:22;;;;;;;;;20.00;18.50;;;;;26.69;54.65;100701.63;6183940;23;47738;-85
2023/09/11 00:37:47;;;;;;;;;24.25;21.25;;;;;26.71;54.63;100710.47;6183534;22;45276;-86
2023/09/11 00:40:12;;;;;;;;;17.00;17.00;;;;;26.68;55.09;100702.66;6181651;23;45114;-84
2023/09/11 00:42:38;;;;;;;;;20.75;19.25;;;;;26.60;54.75;100702.75;6183233;23;45423;-85
2023/09/11 00:45:04;;;;;;;;;20.25;19.25;;;;;26.59;54.57;100709.25;6183983;23;45174;-83
2023/09/11 00:47:29;;;;;;;;;18.67;18.67;;;;;26.52;54.56;100708.28;6184659;23;46212;-86
2023/09/11 00:49:57;;;;;;;;;24.33;21.33;;;;;26.51;54.34;100709.34;6186057;23;45268;-85
2023/09/11 00:52:23;;;;;;;;;17.33;17.33;;;;;26.25;54.06;100680.59;6185078;22;45363;-87
2023/09/11 00:54:51;;;;;;;;;13.75;13.75;;;;;26.35;53.96;100704.88;6185100;22;45168;-85
2023/09/11 00:57:18;;;;;;;;;18.50;17.25;;;;;26.20;54.32;100685.75;6183354;22;45174;-82
2023/09/11 00:59:45;;;;;;;;;19.25;16.75;;;;;26.22;54.12;100705.50;6183793;22;45389;-84
2023/09/11 01:02:13;;;;;;;;;16.75;16.75;;;;;26.02;53.64;100667.00;6183867;23;45325;-86
2023/09/11 01:04:39;;;;;;;;;15.50;15.50;;;;;26.09;53.29;100680.75;6184445;22;45350;-88
2023/09/11 01:07:04;;;;;;;;;19.33;15.67;;;;;26.03;53.36;100678.75;6183987;22;45302;-85
2023/09/11 01:09:32;;;;;;;;;17.33;16.00;;;;;26.02;53.64;100687.97;6182088;23;45272;-86
2023/09/11 01:11:57;;;;;;;;;18.00;15.00;;;;;25.93;53.39;100675.47;6182272;23;45342;-87
2023/09/11 01:14:23;;;;;;;;;17.75;16.25;;;;;25.96;53.80;100680.53;6186495;23;45580;-87
2023/09/11 01:17:01;;;;;;;;;20.00;17.67;;;;;25.97;53.50;100696.69;6185552;22;46462;-87
2023/09/11 01:19:52;;;;;;;;;18.00;18.00;;;;;25.97;53.69;100691.25;6182766;23;45464;-83
2023/09/11 01:22:31;;;;;;;;;16.67;15.33;;;;;25.97;54.11;100693.13;6183194;23;45166;-85
2023/09/11 01:25:30;;;;;;;;;15.75;13.75;;;;;25.87;53.81;100683.31;6184955;22;45798;-83
2023/09/11 01:28:14;;;;;;;;;18.00;16.33;;;;;25.88;54.52;100687.72;6183960;23;45568;-86
2023/09/11 01:30:40;;;;;;;;;17.00;16.67;;;;;25.68;54.08;100655.72;6184770;23;45396;-87
2023/09/11 01:33:05;;;;;;;;;19.67;17.00;;;;;25.85;54.17;100681.81;6183908;22;45279;-86
2023/09/11 01:35:30;;;;;;;;;19.67;18.00;;;;;25.77;54.37;100671.81;6183970;23;45325;-87
2023/09/11 01:37:56;;;;;;;;;19.00;18.67;;;;;25.86;54.25;100687.06;6183459;22;46480;-84
2023/09/11 01:40:24;;;;;;;;;19.00;17.50;;;;;25.85;54.60;100696.28;6182359;23;45297;-83
2023/09/11 01:42:54;;;;;;;;;17.00;16.67;;;;;25.66;54.69;100671.38;6186293;22;45335;-86
2023/09/11 01:45:21;;;;;;;;;19.67;17.67;;;;;25.71;54.71;100686.19;6184883;23;45281;-87
2023/09/11 01:47:52;;;;;;;;;20.67;19.00;;;;;25.78;54.42;100700.78;6184092;22;45924;-84
2023/09/11 01:50:21;;;;;;;;;21.00;15.67;;;;;25.59;54.46;100676.69;6184298;22;45283;-86
2023/09/11 01:52:51;;;;;;;;;15.00;15.00;;;;;25.69;54.53;100695.56;6183996;23;45203;-87
2023/09/11 01:55:17;;;;;;;;;28.67;20.00;;;;;25.69;54.50;100706.47;6183684;22;45438;-85
2023/09/11 01:57:43;;;;;;;;;20.67;18.33;;;;;25.66;55.15;100704.91;6183324;23;45259;-86
2023/09/11 02:00:09;;;;;;;;;17.67;17.67;;;;;25.43;54.88;100671.38;6183778;22;45328;-85
2023/09/11 02:02:34;;;;;;;;;20.67;18.00;;;;;25.59;55.28;100699.34;6183624;22;45611;-86
2023/09/11 02:05:03;;;;;;;;;19.33;19.00;;;;;25.49;55.10;100686.97;6184416;23;45669;-84
2023/09/11 02:07:28;;;;;;;;;20.33;20.33;;;;;25.41;55.73;100684.31;6183761;23;45317;-86
2023/09/11 02:09:54;;;;;;;;;21.00;20.00;;;;;25.45;55.53;100699.28;6181595;23;61275;-87
2023/09/11 02:12:19;;;;;;;;;18.00;15.67;;;;;25.49;55.17;100697.88;6183235;23;56306;-86
2023/09/11 02:14:44;;;;;;;;;22.67;17.67;;;;;25.43;55.02;100704.91;6182294;23;45453;-87
2023/09/11 02:17:10;;;;;;;;;16.00;14.33;;;;;25.39;55.59;100697.25;6182098;23;46249;-86
2023/09/11 02:19:35;;;;;;;;;20.33;16.67;;;;;25.33;55.43;100696.09;6183814;22;45339;-87
2023/09/11 02:22:01;;;;;;;;;18.00;18.00;;;;;25.35;55.67;100695.91;6181073;23;62866;-85
2023/09/11 02:24:26;;;;;;;;;15.67;15.67;;;;;25.36;55.18;100703.06;6184382;23;45478;-86
2023/09/11 02:26:51;;;;;;;;;18.00;18.00;;;;;25.34;55.54;100695.06;6183402;23;47063;-85
2023/09/11 02:29:17;;;;;;;;;21.00;16.33;;;;;25.28;54.97;100701.25;6181444;23;45304;-87
2023/09/11 02:31:42;;;;;;;;;22.67;16.33;;;;;25.18;55.58;100693.31;6184147;23;45294;-86
2023/09/11 02:34:07;;;;;;;;;17.67;17.67;;;;;25.18;55.13;100690.56;6182460;23;45186;-85
2023/09/11 02:36:32;;;;;;;;;19.33;19.33;;;;;25.10;55.56;100678.88;6185408;23;45379;-86
2023/09/11 02:38:58;;;;;;;;;16.67;16.67;;;;;25.05;54.97;100673.97;6183510;23;55968;-85
2023/09/11 02:41:23;;;;;;;;;21.67;21.67;;;;;25.13;55.01;100689.41;6182409;23;55593;-87
2023/09/11 02:43:48;;;;;;;;;15.67;15.67;;;;;25.13;55.31;100694.84;6187205;22;45499;-86
2023/09/11 02:46:14;;;;;;;;;18.67;18.67;;;;;25.01;55.14;100678.09;6184880;23;66573;-86
2023/09/11 02:48:47;;;;;;;;;21.00;19.33;;;;;25.04;55.19;100699.50;6185141;23;45299;-86
2023/09/11 02:51:13;;;;;;;;;20.33;18.00;;;;;25.01;56.07;100701.72;6185237;22;45354;-85
2023/09/11 02:53:38;;;;;;;;;19.00;16.00;;;;;24.97;56.60;100696.59;6183959;22;45390;-85
2023/09/11 02:56:04;;;;;;;;;20.67;17.33;;;;;24.93;56.27;100691.69;6183526;22;45241;-85
2023/09/11 02:58:29;;;;;;;;;18.00;16.33;;;;;24.85;56.26;100687.13;6186155;23;45201;-85
2023/09/11 03:01:00;;;;;;;;;17.00;17.00;;;;;24.71;56.34;100664.22;6186605;23;45155;-83
2023/09/11 03:03:25;;;;;;;;;24.33;22.00;;;;;24.88;55.97;100683.22;6184600;23;45317;-84
2023/09/11 03:05:58;;;;;;;;;20.00;19.67;;;;;24.92;55.79;100682.69;6185555;23;66981;-84
2023/09/11 03:08:24;;;;;;;;;19.00;17.67;;;;;24.82;56.00;100673.03;6188639;22;45161;-84
2023/09/11 03:10:49;;;;;;;;;21.33;20.00;;;;;24.90;55.76;100683.88;6189601;22;45264;-83
2023/09/11 03:13:14;;;;;;;;;14.50;14.50;;;;;24.77;55.88;100662.69;6181950;23;45458;-85
2023/09/11 03:15:42;;;;;;;;;14.33;14.33;;;;;24.89;55.98;100682.19;6182841;22;46130;-84
2023/09/11 03:18:08;;;;;;;;;17.00;17.00;;;;;24.81;55.66;100674.06;6183299;23;45363;-83
2023/09/11 03:20:33;;;;;;;;;19.00;16.67;;;;;24.62;56.01;100634.53;6183844;22;45311;-84
2023/09/11 03:22:59;;;;;;;;;19.33;15.33;;;;;24.57;56.18;100631.47;6183742;22;45252;-84
2023/09/11 03:25:26;;;;;;;;;17.00;16.00;;;;;24.79;55.71;100657.91;6183653;22;45425;-84
2023/09/11 03:27:51;;;;;;;;;18.33;17.33;;;;;24.79;55.46;100651.63;6185580;22;45161;-86
2023/09/11 03:30:17;;;;;;;;;13.00;13.00;;;;;24.79;55.37;100646.19;6188446;22;45321;-83
2023/09/11 03:32:42;;;;;;;;;18.67;17.00;;;;;24.76;55.62;100646.56;6187014;22;44709;-85
2023/09/11 03:35:08;;;;;;;;;19.67;17.67;;;;;24.75;55.99;100648.41;6187431;22;46331;-84
2023/09/11 03:37:33;;;;;;;;;22.00;18.00;;;;;24.62;55.63;100635.38;6187949;22;45141;-83
2023/09/11 03:39:59;;;;;;;;;16.00;16.00;;;;;24.69;55.46;100644.53;6185359;23;45111;-82
2023/09/11 03:42:24;;;;;;;;;14.67;13.00;;;;;24.55;55.50;100628.94;6183373;23;45418;-84
2023/09/11 03:44:50;;;;;;;;;12.00;11.00;;;;;24.65;55.48;100648.63;6182718;22;45294;-85
2023/09/11 03:47:15;;;;;;;;;13.00;11.00;;;;;24.63;55.38;100642.50;6183580;22;45270;-83
2023/09/11 03:49:40;;;;;;;;;16.33;15.00;;;;;24.49;55.93;100635.09;6181910;23;54222;-83
2023/09/11 03:52:06;;;;;;;;;14.67;14.67;;;;;24.54;55.89;100637.28;6184923;23;45340;-84
2023/09/11 03:54:31;;;;;;;;;15.00;14.33;;;;;24.52;55.45;100626.56;6183871;23;65486;-83
2023/09/11 03:56:56;;;;;;;;;17.00;17.00;;;;;24.39;55.98;100613.53;6183598;23;49411;-85
2023/09/11 03:59:21;;;;;;;;;21.00;20.00;;;;;24.50;55.89;100630.50;6181958;23;45206;-84
2023/09/11 04:01:47;;;;;;;;;18.00;17.00;;;;;24.50;55.60;100630.50;6183728;23;45506;-83
2023/09/11 04:04:12;;;;;;;;;14.33;14.33;;;;;24.48;56.19;100632.53;6183423;23;60276;-84
2023/09/11 04:06:37;;;;;;;;;18.00;17.00;;;;;24.47;55.82;100630.81;6184190;22;45347;-83
2023/09/11 04:09:03;;;;;;;;;16.67;14.67;;;;;24.29;56.10;100607.41;6184130;22;45322;-85
2023/09/11 04:11:29;;;;;;;;;16.00;16.00;;;;;24.34;56.00;100621.34;6184059;22;45244;-84
2023/09/11 04:13:55;;;;;;;;;20.67;20.00;;;;;24.37;55.91;100625.63;6183608;22;45936;-82
2023/09/11 04:16:21;;;;;;;;;19.67;19.67;;;;;24.37;56.06;100636.50;6182905;23;55329;-83
2023/09/11 04:18:47;;;;;;;;;15.33;14.67;;;;;24.23;55.67;100607.28;6184303;23;45330;-85
2023/09/11 04:21:12;;;;;;;;;17.67;13.67;;;;;24.34;55.76;100631.38;6185493;23;45192;-86
2023/09/11 04:23:37;;;;;;;;;15.00;12.67;;;;;24.04;55.44;100571.31;6185344;23;47535;-86
2023/09/11 04:26:03;;;;;;;;;7.33;3.33;;;;;24.28;55.55;100621.19;6184378;23;45181;-85
2023/09/11 04:28:28;;;;;;;;;14.67;13.33;;;;;24.20;56.19;100613.03;6184029;23;45130;-86
2023/09/11 04:30:53;;;;;;;;;14.00;13.67;;;;;24.15;55.88;100599.13;6184241;22;45442;-85
2023/09/11 04:33:19;;;;;;;;;16.33;16.33;;;;;24.23;55.94;100616.28;6183456;23;47591;-86
2023/09/11 04:35:44;;;;;;;;;16.67;13.67;;;;;24.13;55.73;100604.75;6183379;23;45389;-84
2023/09/11 04:38:10;;;;;;;;;16.33;14.33;;;;;24.20;56.29;100611.16;6183402;22;45423;-83
2023/09/11 04:40:35;;;;;;;;;15.00;13.00;;;;;24.20;55.91;100619.31;6183918;23;45663;-85
2023/09/11 04:43:01;;;;;;;;;18.33;14.00;;;;;24.13;56.46;100605.59;6183044;23;46193;-83
2023/09/11 04:45:26;;;;;;;;;18.33;16.67;;;;;23.80;56.36;100557.78;6183478;23;45295;-83
2023/09/11 04:47:51;;;;;;;;;19.00;16.00;;;;;24.11;56.71;100618.50;6183766;23;49944;-85
2023/09/11 04:50:17;;;;;;;;;11.00;11.00;;;;;23.95;56.23;100588.63;6184252;22;45517;-84
2023/09/11 04:52:42;;;;;;;;;18.67;15.67;;;;;24.04;56.71;100600.34;6183744;22;45247;-86
2023/09/11 04:55:08;;;;;;;;;14.67;14.67;;;;;24.09;56.15;100606.97;6184676;23;45241;-86
2023/09/11 04:57:34;;;;;;;;;18.33;18.33;;;;;24.02;56.80;100613.25;6183444;23;45273;-86
2023/09/11 04:59:59;;;;;;;;;16.00;14.67;;;;;23.91;56.88;100597.31;6184240;22;45249;-86
2023/09/11 05:02:25;;;;;;;;;20.00;17.33;;;;;23.96;56.59;100608.50;6183693;23;45828;-86
2023/09/11 05:04:50;;;;;;;;;19.00;18.00;;;;;23.93;57.14;100620.56;6182058;23;45330;-84
2023/09/11 05:07:16;;;;;;;;;22.00;18.00;;;;;23.89;57.09;100600.19;6184891;22;45323;-85
2023/09/11 05:09:41;;;;;;;;;18.00;17.00;;;;;23.81;57.64;100586.63;6182499;23;45246;-82
2023/09/11 05:12:06;;;;;;;;;17.33;15.67;;;;;23.83;57.55;100603.63;6184805;22;46390;-84
2023/09/11 05:14:32;;;;;;;;;17.00;14.00;;;;;23.76;57.30;100594.44;6185423;22;45197;-83
2023/09/11 05:16:57;;;;;;;;;15.67;14.33;;;;;23.75;57.55;100603.63;6184349;23;47168;-84
2023/09/11 05:19:22;;;;;;;;;17.00;17.00;;;;;23.82;57.29;100607.31;6184125;23;45279;-84
2023/09/11 05:21:48;;;;;;;;;16.33;14.67;;;;;23.77;57.59;100616.00;6183428;23;51812;-84
2023/09/11 05:24:13;;;;;;;;;16.33;16.00;;;;;23.75;57.63;100614.47;6185221;23;64172;-83
2023/09/11 05:26:38;;;;;;;;;17.33;17.33;;;;;23.62;57.67;100595.13;6186023;22;45285;-85
2023/09/11 05:29:04;;;;;;;;;19.33;17.67;;;;;23.69;58.45;100620.56;6185780;23;45150;-85
2023/09/11 05:31:29;;;;;;;;;17.00;16.33;;;;;23.70;58.22;100619.56;6183682;22;45326;-85
2023/09/11 05:33:55;;;;;;;;;16.33;14.33;;;;;23.58;58.52;100597.34;6182952;23;45367;-82
2023/09/11 05:36:20;;;;;;;;;17.00;17.00;;;;;23.71;58.60;100629.44;6183804;23;46295;-82
2023/09/11 05:38:47;;;;;;;;;14.00;14.00;;;;;23.71;58.51;100629.44;6183041;23;45507;-82
2023/09/11 05:41:13;;;;;;;;;14.00;13.33;;;;;23.72;58.27;100628.41;6181943;23;46037;-81
2023/09/11 05:43:40;;;;;;;;;18.33;16.33;;;;;23.51;58.13;100593.56;6183326;22;45371;-84
2023/09/11 05:46:06;;;;;;;;;22.33;19.33;;;;;23.70;58.45;100617.72;6183281;23;45198;-81
2023/09/11 05:48:31;;;;;;;;;14.67;14.33;;;;;23.74;58.13;100626.38;6182904;22;45496;-82
2023/09/11 05:50:56;;;;;;;;;18.33;17.33;;;;;23.78;58.63;100634.00;6182511;23;46193;-82
2023/09/11 05:53:22;;;;;;;;;16.33;16.33;;;;;23.69;58.56;100620.56;6181517;23;57580;-84
2023/09/11 05:55:48;;;;;;;;;17.00;16.00;;;;;23.73;58.62;100619.25;6185220;23;45159;-87
2023/09/11 05:58:13;;;;;;;;;15.67;15.00;;;;;23.80;58.82;100625.66;6188841;22;45456;-83
2023/09/11 06:00:38;;;;;;;;;20.33;20.33;;;;;23.88;58.61;100628.38;6185068;22;46678;-87
2023/09/11 06:03:04;;;;;;;;;21.67;19.00;;;;;23.76;58.43;100600.72;6189101;23;52189;-86
2023/09/11 06:05:31;;;;;;;;;21.00;19.33;;;;;23.94;58.56;100624.13;6189917;23;45300;-86
2023/09/11 06:07:56;;;;;;;;;16.00;16.00;;;;;23.98;57.94;100631.78;6186181;22;45407;-85
2023/09/11 06:10:22;;;;;;;;;17.00;17.00;;;;;24.05;57.95;100638.19;6185075;23;46462;-89
2023/09/11 06:12:48;;;;;;;;;17.67;15.33;;;;;24.09;57.67;100633.28;6183283;23;45318;-85
2023/09/11 06:15:13;;;;;;;;;19.67;15.67;;;;;23.92;57.47;100605.28;6183862;22;45415;-83
2023/09/11 06:17:38;;;;;;;;;17.67;17.67;;;;;24.00;57.38;100627.00;6181314;22;45544;-84
2023/09/11 06:20:10;;;;;;;;;29.00;25.00;;;;;23.92;57.91;100637.03;6182277;23;45275;-83
2023/09/11 06:22:37;;;;;;;;;18.00;18.00;;;;;23.81;57.82;100619.22;6182739;22;45366;-84
2023/09/11 06:25:04;;;;;;;;;19.00;19.00;;;;;23.86;58.06;100635.00;6183296;23;45264;-85
2023/09/11 06:27:30;;;;;;;;;18.00;16.00;;;;;23.91;58.21;100649.75;6181550;23;45416;-81
2023/09/11 06:29:55;;;;;;;;;20.67;20.67;;;;;23.99;57.42;100646.22;6182811;23;46187;-82
2023/09/11 06:32:20;;;;;;;;;19.67;19.67;;;;;24.02;57.43;100633.13;6183267;23;45174;-83
2023/09/11 06:34:46;;;;;;;;;19.67;19.67;;;;;24.09;57.68;100641.44;6181836;23;46252;-85
2023/09/11 06:37:11;;;;;;;;;20.33;18.67;;;;;24.11;57.66;100637.53;6182747;23;45103;-85
2023/09/11 06:39:37;;;;;;;;;21.33;19.67;;;;;24.15;57.52;100635.31;6182331;23;45980;-83
2023/09/11 06:42:02;;;;;;;;;17.33;17.33;;;;;24.30;56.71;100651.78;6181787;23;45149;-80
2023/09/11 06:44:27;;;;;;;;;18.00;17.00;;;;;24.34;56.87;100643.09;6182002;22;45367;-82
2023/09/11 06:46:53;;;;;;;;;17.67;17.67;;;;;24.41;56.84;100649.53;6181386;23;58552;-82
2023/09/11 06:49:19;;;;;;;;;23.33;18.33;;;;;24.44;56.55;100642.91;6181239;23;48010;-85
2023/09/11 06:51:44;;;;;;;;;26.33;17.67;;;;;24.45;56.32;100630.16;6185431;22;45317;-83
2023/09/11 06:54:12;;;;;;;;;24.33;20.33;;;;;24.52;55.84;100614.84;6186728;23;54491;-82
2023/09/11 06:56:40;;;;;;;;;24.00;21.00;;;;;24.73;55.20;100611.53;6185017;23;45883;-85
2023/09/11 06:59:05;;;;;;;;;26.00;22.33;;;;;25.04;55.05;100639.63;6183799;23;45209;-85
2023/09/11 07:01:31;;;;;;;;;18.00;15.33;;;;;25.10;54.46;100647.06;6184666;22;45276;-82
2023/09/11 07:03:57;;;;;;;;;19.67;19.67;;;;;25.12;54.46;100650.44;6181419;23;45229;-85
2023/09/11 07:06:22;;;;;;;;;16.67;16.67;;;;;25.16;54.12;100645.53;6184218;22;45171;-84
2023/09/11 07:08:47;;;;;;;;;18.33;16.67;;;;;25.02;54.10;100622.66;6182795;23;47316;-83
2023/09/11 07:11:15;;;;;;;;;23.00;17.33;;;;;25.08;54.18;100632.78;6182574;23;68957;-85
2023/09/11 07:13:41;;;;;;;;;16.67;16.67;;;;;25.22;53.82;100640.19;6182517;22;45228;-82
2023/09/11 07:16:06;;;;;;;;;20.00;16.67;;;;;25.31;53.37;100637.44;6182741;23;49445;-82
2023/09/11 07:18:32;;;;;;;;;21.67;20.33;;;;;25.43;53.29;100650.44;6183957;22;45683;-84
2023/09/11 07:20:57;;;;;;;;;19.00;16.33;;;;;25.53;53.17;100647.50;6185004;23;45280;-79
2023/09/11 07:23:27;;;;;;;;;22.33;18.00;;;;;25.63;52.48;100645.34;6187513;23;45377;-87
2023/09/11 07:25:52;;;;;;;;;18.33;17.00;;;;;25.79;52.54;100656.16;6184416;22;45397;-84
2023/09/11 07:28:18;;;;;;;;;18.00;15.00;;;;;25.64;52.28;100633.41;6185366;23;45213;-83
2023/09/11 07:30:46;;;;;;;;;19.33;19.33;;;;;25.64;52.45;100647.03;6184715;23;45162;-83
2023/09/11 07:33:12;;;;;;;;;19.00;17.33;;;;;25.51;53.09;100647.63;6185870;22;45229;-86
2023/09/11 07:35:37;;;;;;;;;20.67;19.67;;;;;25.56;53.23;100644.41;6185251;23;45434;-82
2023/09/11 07:38:02;;;;;;;;;19.67;18.33;;;;;25.60;53.21;100643.00;6183140;23;65878;-82
2023/09/11 07:40:28;;;;;;;;;19.33;18.67;;;;;25.63;53.23;100645.34;6187069;23;45929;-85
2023/09/11 07:42:54;;;;;;;;;20.00;17.33;;;;;25.65;53.14;100643.28;6181855;23;45557;-83
2023/09/11 07:45:23;;;;;;;;;23.00;16.33;;;;;25.41;52.78;100608.94;6183550;23;45347;-85
2023/09/11 07:47:48;;;;;;;;;19.33;19.33;;;;;25.37;53.18;100617.63;6208052;22;46817;-81
2023/09/11 07:50:14;;;;;;;;;18.67;17.00;;;;;25.48;52.91;100652.59;6183921;22;45243;-85
2023/09/11 07:52:39;;;;;;;;;22.33;19.67;;;;;25.58;53.23;100653.22;6185471;22;45562;-84
2023/09/11 07:55:06;;;;;;;;;32.00;28.33;;;;;25.73;52.77;100654.16;6184124;23;49036;-85
2023/09/11 07:57:32;;;;;;;;;19.33;17.33;;;;;25.73;52.36;100650.59;6186295;22;45325;-86
2023/09/11 08:00:03;;;;;;;;;18.75;14.25;;;;;25.80;51.95;100668.75;6186067;22;45358;-82
2023/09/11 08:02:28;;;;;;;;;18.75;14.50;;;;;25.85;51.56;100665.47;6184461;22;45258;-84
2023/09/11 08:04:53;;;;;;;;;15.75;15.75;;;;;25.90;51.33;100668.47;6183957;23;48023;-84
2023/09/11 08:07:19;;;;;;;;;18.33;15.33;;;;;25.84;51.20;100674.66;6184204;23;45302;-79
2023/09/11 08:09:46;;;;;;;;;16.50;14.00;;;;;25.79;51.76;100680.69;6185548;22;45306;-80
2023/09/11 08:12:11;;;;;;;;;14.67;14.67;;;;;25.82;51.81;100661.22;6187214;23;45411;-84
2023/09/11 08:14:37;;;;;;;;;19.25;18.00;;;;;25.94;51.31;100655.34;6189343;23;45253;-81
2023/09/11 08:17:02;;;;;;;;;18.33;17.33;;;;;26.10;51.35;100658.75;6187045;23;47489;-81
2023/09/11 08:19:27;;;;;;;;;17.75;16.75;;;;;26.21;50.60;100665.66;6186369;23;45375;-84
2023/09/11 08:21:54;;;;;;;;;15.00;15.00;;;;;26.13;50.69;100650.22;6188025;22;45423;-80
2023/09/11 08:24:20;;;;;;;;;22.67;19.33;;;;;26.33;50.55;100668.78;6185053;22;45792;-82
2023/09/11 08:26:45;;;;;;;;;14.75;14.75;;;;;26.14;49.91;100632.81;6183212;23;48494;-84
2023/09/11 08:29:12;;;;;;;;;20.67;14.67;;;;;26.22;50.30;100656.44;6184439;22;45199;-83
2023/09/11 08:31:37;;;;;;;;;18.75;16.75;;;;;26.10;50.26;100638.84;6184175;23;45360;-84
2023/09/11 08:34:03;;;;;;;;;15.50;13.00;;;;;26.40;49.79;100677.91;6183761;23;45202;-80
2023/09/11 08:36:28;;;;;;;;;14.00;11.75;;;;;26.36;49.90;100663.81;6181785;23;47382;-83
2023/09/11 08:38:54;;;;;;;;;16.25;13.50;;;;;26.50;49.54;100669.47;6184546;23;48800;-84
2023/09/11 08:41:23;;;;;;;;;18.00;14.50;;;;;26.52;49.32;100668.22;6185069;22;45458;-82
2023/09/11 08:43:50;;;;;;;;;16.75;15.25;;;;;26.50;49.53;100650.38;6185550;22;45293;-82
2023/09/11 08:46:16;;;;;;;;;21.00;17.33;;;;;26.68;49.61;100672.66;6186141;22;46263;-83
2023/09/11 08:48:48;;;;;;;;;16.50;13.00;;;;;26.73;49.21;100660.16;6184735;23;45245;-81
2023/09/11 08:51:22;;;;;;;;;16.25;15.00;;;;;26.68;48.78;100650.81;6186540;22;45356;-84
2023/09/11 08:53:51;;;;;;;;;12.50;12.50;;;;;26.76;48.43;100669.81;6188770;23;45354;-85
2023/09/11 08:56:16;;;;;;;;;12.50;12.00;;;;;26.81;48.23;100661.91;6191848;22;45321;-85
2023/09/11 08:58:43;;;;;;;;;12.75;11.00;;;;;26.80;48.15;100664.81;6191549;22;45183;-84
2023/09/11 09:01:09;;;;;;;;;12.25;11.25;;;;;26.90;48.59;100671.69;6188772;22;45173;-83
2023/09/11 09:03:36;;;;;;;;;15.50;13.00;;;;;26.99;48.70;100676.03;6184137;23;45544;-84
2023/09/11 09:06:03;;;;;;;;;15.25;15.25;;;;;27.07;48.02;100677.81;6184858;23;45974;-82
2023/09/11 09:08:29;;;;;;;;;19.75;16.50;;;;;27.04;48.14;100681.78;6184488;22;45352;-82
2023/09/11 09:10:55;;;;;;;;;17.50;17.50;;;;;27.12;48.13;100690.91;6183664;22;45355;-82
2023/09/11 09:13:20;;;;;;;;;22.00;16.50;;;;;27.10;48.29;100682.06;6185628;23;45249;-88
2023/09/11 09:15:45;;;;;;;;;14.50;12.50;;;;;27.11;48.31;100683.75;6185670;22;45983;-83
2023/09/11 09:18:11;;;;;;;;;13.75;11.50;;;;;27.08;48.06;100662.28;6187103;22;45193;-84
2023/09/11 09:20:38;;;;;;;;;13.00;13.00;;;;;27.39;47.25;100675.69;6184200;22;45352;-83
2023/09/11 09:23:03;;;;;;;;;15.50;15.00;;;;;27.57;47.16;100671.44;6183823;23;45357;-84
2023/09/11 09:25:30;;;;;;;;;14.50;13.25;;;;;27.71;46.45;100661.53;6181476;23;47440;-84
2023/09/11 09:27:57;;;;;;;;;19.25;14.75;;;;;27.93;46.50;100678.75;6183084;22;45282;-84
2023/09/11 09:30:30;;;;;;;;;11.50;11.50;;;;;28.24;45.45;100680.25;6183299;22;45366;-86
2023/09/11 09:32:57;;;;;;;;;15.50;13.25;;;;;28.29;45.14;100705.16;6182863;22;45475;-88
2023/09/11 09:35:25;;;;;;;;;12.75;12.75;;;;;28.33;44.94;100737.38;6182895;22;45840;-82
2023/09/11 09:37:55;;;;;;;;;18.25;17.50;;;;;28.35;45.36;100748.13;6183071;22;45427;-83
2023/09/11 09:40:47;;;;;;;;;17.50;14.75;;;;;28.31;45.41;100755.88;6182335;22;45369;-83
2023/09/11 09:43:17;;;;;;;;;17.25;15.00;;;;;28.33;46.00;100751.06;6180235;23;45229;-83
2023/09/11 09:45:42;;;;;;;;;16.50;14.75;;;;;28.32;46.19;100754.00;6185036;22;46144;-83
2023/09/11 09:48:16;;;;;;;;;15.00;14.00;;;;;28.09;46.61;100744.09;6185109;23;45356;-84
2023/09/11 09:50:59;;;;;;;;;16.75;16.50;;;;;28.19;46.94;100762.91;6184172;22;45327;-84
2023/09/11 09:53:32;;;;;;;;;21.00;21.00;;;;;28.10;47.48;100761.34;6184572;22;45294;-84
2023/09/11 09:56:03;;;;;;;;;20.50;16.75;;;;;27.98;46.72;100751.97;6183391;22;46139;-83
2023/09/11 09:58:30;;;;;;;;;18.00;16.25;;;;;27.82;47.26;100748.44;6183835;23;45314;-85
2023/09/11 10:01:03;;;;;;;;;13.25;13.25;;;;;27.68;47.47;100740.31;6184818;22;45234;-85
2023/09/11 10:03:45;;;;;;;;;12.50;10.75;;;;;27.83;47.79;100727.44;6185412;23;45341;-86
2023/09/11 10:06:26;;;;;;;;;17.00;17.00;;;;;27.85;47.31;100684.34;6183731;22;46500;-87
2023/09/11 10:09:08;;;;;;;;;13.25;13.25;;;;;28.41;47.00;100730.94;6185564;22;45335;-86
2023/09/11 10:11:34;;;;;;;;;14.75;14.00;;;;;28.39;46.28;100735.75;6184853;22;45288;-83
2023/09/11 10:14:04;;;;;;;;;12.25;12.25;;;;;28.45;46.69;100726.75;6208509;22;45407;-84
2023/09/11 10:16:33;;;;;;;;;14.00;13.50;;;;;28.55;45.80;100719.03;6183421;22;45967;-87
2023/09/11 10:19:00;;;;;;;;;15.75;13.25;;;;;28.34;46.22;100725.41;6184488;23;45360;-85
2023/09/11 10:21:26;;;;;;;;;13.50;12.50;;;;;28.09;46.70;100733.16;6185094;23;45374;-85
2023/09/11 10:23:53;;;;;;;;;11.75;11.75;;;;;28.13;46.65;100704.38;6184935;22;45160;-82
2023/09/11 10:26:27;;;;;;;;;12.25;12.00;;;;;28.28;46.67;100687.91;6185280;22;45961;-82
2023/09/11 10:28:55;;;;;;;;;13.25;11.50;;;;;28.53;46.03;100709.34;6184571;23;45170;-84
2023/09/11 10:31:25;;;;;;;;;11.25;11.25;;;;;28.65;45.83;100700.38;6182437;23;45540;-83
2023/09/11 10:33:55;;;;;;;;;14.50;13.25;;;;;28.90;45.83;100705.38;6182256;23;45253;-82
2023/09/11 10:36:34;;;;;;;;;15.25;15.25;;;;;28.90;45.63;100705.38;6185385;23;45617;-84
2023/09/11 10:39:04;;;;;;;;;17.75;12.75;;;;;28.74;45.91;100701.88;6185305;22;45304;-85
2023/09/11 10:41:30;;;;;;;;;14.75;11.50;;;;;28.69;45.55;100707.13;6183405;22;45193;-84
2023/09/11 10:43:56;;;;;;;;;12.50;12.25;;;;;28.60;45.36;100688.31;6184901;23;45432;-82
2023/09/11 10:46:21;;;;;;;;;14.25;13.00;;;;;28.76;45.51;100704.41;6186262;23;45263;-85
2023/09/11 10:48:47;;;;;;;;;12.25;11.00;;;;;28.74;45.85;100687.34;6185348;23;55164;-82
2023/09/11 10:51:13;;;;;;;;;16.50;12.50;;;;;29.09;45.40;100712.84;6183660;22;45358;-83
2023/09/11 10:53:40;;;;;;;;;12.75;11.25;;;;;29.47;44.17;100710.47;6185343;22;45320;-82
2023/09/11 10:56:06;;;;;;;;;12.75;12.25;;;;;29.71;42.91;100700.84;6183479;22;45285;-80
2023/09/11 10:58:32;;;;;;;;;11.00;9.20;;;;;30.08;42.82;100724.13;6183961;22;45258;-83
2023/09/11 11:00:58;;;;;;;;;12.25;8.75;;;;;30.25;41.80;100719.06;6181714;23;45372;-83
2023/09/11 11:03:29;;;;;;;;;12.25;10.50;;;;;30.28;41.78;100715.03;6184004;22;45226;-83
2023/09/11 11:05:57;;;;;;;;;14.00;10.50;;;;;30.49;41.20;100707.41;6183008;22;46103;-83
2023/09/11 11:08:23;;;;;;;;;8.80;7.20;;;;;30.85;40.27;100718.97;6185425;23;45269;-82